createdAt,value
2018-03-08T00:00:35.379Z,3.40
2018-03-08T00:03:02.905Z,3.50
2018-03-08T00:05:30.432Z,3.50
2018-03-08T00:07:57.992Z,3.50
2018-03-08T00:10:25.519Z,3.60
2018-03-08T00:12:53.822Z,3.60
2018-03-08T00:15:21.380Z,3.60
2018-03-08T00:17:48.908Z,3.60
2018-03-08T00:20:16.435Z,3.60
2018-03-08T00:22:44.039Z,3.60
2018-03-08T00:25:12.340Z,3.50
2018-03-08T00:27:40.395Z,3.50
2018-03-08T00:30:08.715Z,3.50
2018-03-08T00:32:36.252Z,3.40
2018-03-08T00:35:03.788Z,3.40
2018-03-08T00:37:32.127Z,3.40
2018-03-08T00:39:59.660Z,3.40
2018-03-08T00:42:27.191Z,3.40
2018-03-08T00:44:55.419Z,3.40
2018-03-08T00:47:22.948Z,3.50
2018-03-08T00:49:50.497Z,3.40
2018-03-08T00:52:18.060Z,3.40
2018-03-08T00:54:45.599Z,3.50
2018-03-08T00:57:15.320Z,3.50
2018-03-08T00:59:42.870Z,3.50
2018-03-08T01:02:10.399Z,3.50
2018-03-08T01:04:37.937Z,3.50
2018-03-08T01:07:06.043Z,3.50
2018-03-08T01:09:33.575Z,3.50
2018-03-08T01:12:01.107Z,3.40
2018-03-08T01:14:28.660Z,3.40
2018-03-08T01:16:56.199Z,3.40
2018-03-08T01:19:24.496Z,3.30
2018-03-08T01:21:52.061Z,3.30
2018-03-08T01:24:19.588Z,3.40
2018-03-08T01:26:47.878Z,3.40
2018-03-08T01:29:17.896Z,3.40
2018-03-08T01:31:45.439Z,3.50
2018-03-08T01:34:14.539Z,3.60
2018-03-08T01:36:42.096Z,3.60
2018-03-08T01:39:09.628Z,3.60
2018-03-08T01:41:37.156Z,3.60
2018-03-08T01:44:04.708Z,3.70
2018-03-08T01:46:32.240Z,3.70
2018-03-08T01:49:00.543Z,3.70
2018-03-08T01:51:28.412Z,3.70
2018-03-08T01:53:55.955Z,3.70
2018-03-08T01:56:24.257Z,3.70
2018-03-08T01:58:51.816Z,3.70
2018-03-08T02:01:19.344Z,3.70
2018-03-08T02:03:46.871Z,3.70
2018-03-08T02:06:15.580Z,3.70
2018-03-08T02:08:43.112Z,3.70
2018-03-08T02:11:10.635Z,3.70
2018-03-08T02:13:38.247Z,3.70
2018-03-08T02:16:05.778Z,3.70
2018-03-08T02:18:33.312Z,3.70
2018-03-08T02:21:00.881Z,3.80
2018-03-08T02:23:28.407Z,3.80
2018-03-08T02:25:56.695Z,3.80
2018-03-08T02:28:24.247Z,3.80
2018-03-08T02:30:53.245Z,3.90
2018-03-08T02:33:20.774Z,3.90
2018-03-08T02:35:48.832Z,3.90
2018-03-08T02:38:16.480Z,3.90
2018-03-08T02:40:44.024Z,3.90
2018-03-08T02:43:11.588Z,3.80
2018-03-08T02:45:39.116Z,3.90
2018-03-08T02:48:06.639Z,3.90
2018-03-08T02:50:34.192Z,3.80
2018-03-08T02:53:01.726Z,3.70
2018-03-08T02:55:29.250Z,3.60
2018-03-08T02:57:57.185Z,3.60
2018-03-08T03:00:24.718Z,3.50
2018-03-08T03:02:52.243Z,3.50
2018-03-08T03:05:20.574Z,3.60
2018-03-08T03:07:48.105Z,3.50
2018-03-08T03:10:16.507Z,3.60
2018-03-08T03:12:44.068Z,3.60
2018-03-08T03:15:11.592Z,3.60
2018-03-08T03:17:39.127Z,3.60
2018-03-08T03:20:07.884Z,3.60
2018-03-08T03:22:35.412Z,3.60
2018-03-08T03:25:02.948Z,3.60
2018-03-08T03:27:31.271Z,3.60
2018-03-08T03:29:58.810Z,3.60
2018-03-08T03:32:26.747Z,3.60
2018-03-08T03:34:55.075Z,3.60
2018-03-08T03:37:22.607Z,3.50
2018-03-08T03:39:50.135Z,3.60
2018-03-08T03:42:19.091Z,3.70
2018-03-08T03:44:46.615Z,3.70
2018-03-08T03:47:15.516Z,3.70
2018-03-08T03:49:43.108Z,3.70
2018-03-08T03:52:10.635Z,3.60
2018-03-08T03:54:38.168Z,3.60
2018-03-08T03:57:06.513Z,3.80
2018-03-08T03:59:34.047Z,3.80
2018-03-08T04:02:01.575Z,3.80
2018-03-08T04:04:29.374Z,3.70
2018-03-08T04:06:56.892Z,3.80
2018-03-08T04:09:24.414Z,3.80
2018-03-08T04:11:51.955Z,3.70
2018-03-08T04:14:19.501Z,3.80
2018-03-08T04:16:47.040Z,3.70
2018-03-08T04:19:16.414Z,3.70
2018-03-08T04:21:43.939Z,3.80
2018-03-08T04:24:11.464Z,3.80
2018-03-08T04:26:39.471Z,3.80
2018-03-08T04:29:06.996Z,3.80
2018-03-08T04:31:34.525Z,3.70
2018-03-08T04:34:03.043Z,3.70
2018-03-08T04:36:30.578Z,3.70
2018-03-08T04:38:58.993Z,3.80
2018-03-08T04:41:26.554Z,3.70
2018-03-08T04:43:54.140Z,3.70
2018-03-08T04:46:21.669Z,3.60
2018-03-08T04:48:49.523Z,3.60
2018-03-08T04:51:17.054Z,3.60
2018-03-08T04:53:44.585Z,3.50
2018-03-08T04:56:12.150Z,3.40
2018-03-08T04:58:39.677Z,3.30
2018-03-08T05:01:07.200Z,3.30
2018-03-08T05:03:34.760Z,3.20
2018-03-08T05:06:03.054Z,3.10
2018-03-08T05:08:30.588Z,3.00
2018-03-08T05:10:58.467Z,3.00
2018-03-08T05:13:26.003Z,3.00
2018-03-08T05:15:53.541Z,2.90
2018-03-08T05:18:21.305Z,3.00
2018-03-08T05:20:48.831Z,3.00
2018-03-08T05:23:16.432Z,3.00
2018-03-08T05:25:44.003Z,3.00
2018-03-08T05:28:11.541Z,3.00
2018-03-08T05:30:39.072Z,3.00
2018-03-08T05:33:06.972Z,3.00
2018-03-08T05:35:35.429Z,3.10
2018-03-08T05:38:02.965Z,3.10
2018-03-08T05:40:30.522Z,3.10
2018-03-08T05:42:58.897Z,3.20
2018-03-08T05:45:26.428Z,3.20
2018-03-08T05:47:53.983Z,3.20
2018-03-08T05:50:21.513Z,3.30
2018-03-08T05:52:49.046Z,3.30
2018-03-08T05:55:16.638Z,3.40
2018-03-08T05:57:44.167Z,3.40
2018-03-08T06:00:11.708Z,3.40
2018-03-08T06:02:39.263Z,3.50
2018-03-08T06:05:07.555Z,3.50
2018-03-08T06:07:35.087Z,3.50
2018-03-08T06:10:02.651Z,3.60
2018-03-08T06:12:30.188Z,3.60
2018-03-08T06:14:57.724Z,3.60
2018-03-08T06:17:25.819Z,3.70
2018-03-08T06:19:53.355Z,3.70
2018-03-08T06:22:20.963Z,3.70
2018-03-08T06:24:48.548Z,3.70
2018-03-08T06:27:16.399Z,3.80
2018-03-08T06:29:43.956Z,3.80
2018-03-08T06:32:11.531Z,3.80
2018-03-08T06:34:39.828Z,3.90
2018-03-08T06:37:08.184Z,3.80
2018-03-08T06:39:36.562Z,3.90
2018-03-08T06:42:04.094Z,4.00
2018-03-08T06:44:31.619Z,4.00
2018-03-08T06:46:59.172Z,4.10
2018-03-08T06:49:26.700Z,4.20
2018-03-08T06:51:54.223Z,4.20
2018-03-08T06:54:21.771Z,4.20
2018-03-08T06:56:49.299Z,4.20
2018-03-08T06:59:16.824Z,4.20
2018-03-08T07:01:44.964Z,4.30
2018-03-08T07:04:12.492Z,4.30
2018-03-08T07:06:40.039Z,4.30
2018-03-08T07:09:07.647Z,4.40
2018-03-08T07:11:35.206Z,4.40
2018-03-08T07:14:02.761Z,4.50
2018-03-08T07:16:30.395Z,4.50
2018-03-08T07:18:57.923Z,4.50
2018-03-08T07:21:25.451Z,4.50
2018-03-08T07:23:53.317Z,4.50
2018-03-08T07:26:21.615Z,4.60
2018-03-08T07:28:49.149Z,4.50
2018-03-08T07:31:17.498Z,4.50
2018-03-08T07:33:45.048Z,4.40
2018-03-08T07:36:14.308Z,4.60
2018-03-08T07:38:42.616Z,4.60
2018-03-08T07:41:10.152Z,5.00
2018-03-08T07:43:37.692Z,5.50
2018-03-08T07:46:05.616Z,6.60
2018-03-08T07:48:33.160Z,7.30
2018-03-08T07:51:00.690Z,8.80
2018-03-08T07:53:28.255Z,9.30
2018-03-08T07:55:55.814Z,10.10
2018-03-08T07:58:23.343Z,9.90
2018-03-08T08:00:50.908Z,9.80
2018-03-08T08:03:18.435Z,9.90
2018-03-08T08:05:58.229Z,10.90
2018-03-08T08:08:38.368Z,12.00
2018-03-08T08:11:05.948Z,12.00
2018-03-08T08:13:33.488Z,13.20
2018-03-08T08:16:01.028Z,14.20
2018-03-08T08:18:28.597Z,13.40
2018-03-08T08:20:56.187Z,13.80
2018-03-08T08:23:23.701Z,14.00
2018-03-08T08:25:51.978Z,14.90
2018-03-08T08:28:19.633Z,15.20
2018-03-08T08:30:47.175Z,16.20
2018-03-08T08:33:15.538Z,17.10
2018-03-08T08:35:43.075Z,17.20
2018-03-08T08:38:11.493Z,16.20
2018-03-08T08:40:39.885Z,16.20
2018-03-08T08:43:07.419Z,16.00
2018-03-08T08:45:34.960Z,15.50
2018-03-08T08:48:02.854Z,14.90
2018-03-08T08:50:30.440Z,15.00
2018-03-08T08:52:57.979Z,14.80
2018-03-08T08:55:25.549Z,15.50
2018-03-08T08:57:53.159Z,15.60
2018-03-08T09:00:21.467Z,16.40
2018-03-08T09:02:49.037Z,16.40
2018-03-08T09:05:17.396Z,16.80
2018-03-08T09:07:44.941Z,16.80
2018-03-08T09:10:14.768Z,16.20
2018-03-08T09:12:42.316Z,16.20
2018-03-08T09:15:10.700Z,16.70
2018-03-08T09:17:38.240Z,16.70
2018-03-08T09:20:05.825Z,17.80
2018-03-08T09:22:33.376Z,18.00
2018-03-08T09:25:00.952Z,17.70
2018-03-08T09:27:28.496Z,17.00
2018-03-08T09:29:56.032Z,17.10
2018-03-08T09:32:23.651Z,18.50
2018-03-08T09:34:51.216Z,18.30
2018-03-08T09:37:18.751Z,18.20
2018-03-08T09:39:46.676Z,18.30
2018-03-08T09:42:26.936Z,17.40
2018-03-08T09:54:30.063Z,17.30
2018-03-08T09:56:57.644Z,16.80
2018-03-08T09:59:25.220Z,16.50
2018-03-08T10:01:52.771Z,16.60
2018-03-08T10:04:20.332Z,16.00
2018-03-08T10:06:47.940Z,15.20
2018-03-08T10:09:16.475Z,16.20
2018-03-08T10:11:44.020Z,17.00
2018-03-08T10:14:11.561Z,16.60
2018-03-08T10:16:39.821Z,16.30
2018-03-08T10:19:07.372Z,17.00
2018-03-08T10:21:45.149Z,16.80
2018-03-08T10:24:02.596Z,15.50
2018-03-08T10:26:30.188Z,14.70
2018-03-08T10:28:57.968Z,14.10
2018-03-08T10:31:25.532Z,13.30
2018-03-08T10:33:53.067Z,12.70
2018-03-08T10:36:20.679Z,12.40
2018-03-08T10:38:48.552Z,11.70
2018-03-08T10:41:16.592Z,11.10
2018-03-08T10:43:44.704Z,10.60
2018-03-08T10:46:12.264Z,10.40
2018-03-08T10:48:39.885Z,10.70
2018-03-08T10:51:07.757Z,10.90
2018-03-08T10:53:35.332Z,10.90
2018-03-08T10:56:02.871Z,11.10
2018-03-08T10:58:30.417Z,11.20
2018-03-08T11:00:58.695Z,11.10
2018-03-08T11:03:31.908Z,11.30
2018-03-08T11:05:59.491Z,11.40
2018-03-08T11:08:27.821Z,11.30
2018-03-08T11:10:55.372Z,11.30
2018-03-08T11:13:22.964Z,11.70
2018-03-08T11:15:50.518Z,11.60
2018-03-08T11:18:18.058Z,11.30
2018-03-08T11:20:46.344Z,11.20
2018-03-08T11:23:25.208Z,11.30
2018-03-08T11:28:11.281Z,11.10
2018-03-08T11:30:38.820Z,10.70
2018-03-08T11:33:07.140Z,10.80
2018-03-08T11:35:34.714Z,10.80
2018-03-08T11:38:02.251Z,10.60
2018-03-08T11:40:29.796Z,10.50
2018-03-08T11:42:57.576Z,10.60
2018-03-08T11:45:25.775Z,10.50
2018-03-08T11:47:54.070Z,9.90
2018-03-08T11:50:21.853Z,9.90
2018-03-08T11:52:49.230Z,9.60
2018-03-08T11:55:16.800Z,9.60
2018-03-08T11:57:44.361Z,9.60
2018-03-08T12:00:11.934Z,9.50
2018-03-08T12:02:39.799Z,9.40
2018-03-08T12:05:07.680Z,9.50
2018-03-08T12:07:36.009Z,9.50
2018-03-08T12:10:03.577Z,9.50
2018-03-08T12:12:31.187Z,9.60
2018-03-08T12:14:58.960Z,9.60
2018-03-08T12:17:26.491Z,9.60
2018-03-08T12:19:54.059Z,9.80
2018-03-08T12:22:21.627Z,10.20
2018-03-08T12:24:49.164Z,10.50
2018-03-08T12:27:17.020Z,10.60
2018-03-08T12:29:44.766Z,10.70
2018-03-08T12:32:12.352Z,10.60
2018-03-08T12:34:39.944Z,10.60
2018-03-08T12:37:08.258Z,10.70
2018-03-08T12:39:35.853Z,10.70
2018-03-08T12:42:03.395Z,10.80
2018-03-08T12:44:30.959Z,10.80
2018-03-08T12:46:59.136Z,10.90
2018-03-08T12:49:27.108Z,11.00
2018-03-08T12:51:55.898Z,11.10
2018-03-08T12:54:23.431Z,11.20
2018-03-08T12:56:50.997Z,11.20
2018-03-08T12:59:18.546Z,11.30
2018-03-08T13:01:46.088Z,11.30
2018-03-08T13:04:27.753Z,11.50
2018-03-08T13:09:59.600Z,11.40
2018-03-08T13:12:27.139Z,11.50
2018-03-08T13:14:54.684Z,11.40
2018-03-08T13:17:22.243Z,11.40
2018-03-08T13:19:49.784Z,11.50
2018-03-08T13:22:18.133Z,11.80
2018-03-08T13:24:45.752Z,11.80
2018-03-08T13:27:30.236Z,11.50
2018-03-08T13:35:58.004Z,11.50
2018-03-08T13:38:25.592Z,11.40
2018-03-08T13:40:53.137Z,11.50
2018-03-08T13:43:20.756Z,11.40
2018-03-08T13:45:48.296Z,11.40
2018-03-08T13:48:17.484Z,11.40
2018-03-08T13:50:45.085Z,11.50
2018-03-08T13:53:14.377Z,11.50
2018-03-08T13:55:41.976Z,11.50
2018-03-08T13:58:09.883Z,11.60
2018-03-08T14:00:37.415Z,11.70
2018-03-08T14:03:05.299Z,11.70
2018-03-08T14:05:32.880Z,11.80
2018-03-08T14:08:00.424Z,11.70
2018-03-08T14:10:28.129Z,11.70
2018-03-08T14:12:55.904Z,11.60
2018-03-08T14:15:23.445Z,11.50
2018-03-08T14:17:51.030Z,11.50
2018-03-08T14:20:18.885Z,11.50
2018-03-08T14:22:46.549Z,11.50
2018-03-08T14:25:16.782Z,11.50
2018-03-08T14:27:44.362Z,11.50
2018-03-08T14:30:12.108Z,11.60
2018-03-08T14:32:39.645Z,11.50
2018-03-08T14:35:07.211Z,11.50
2018-03-08T14:37:35.589Z,11.40
2018-03-08T14:40:04.075Z,11.40
2018-03-08T14:42:31.714Z,11.40
2018-03-08T14:45:00.112Z,11.40
2018-03-08T14:47:28.931Z,11.40
2018-03-08T14:49:57.306Z,11.40
2018-03-08T14:52:24.952Z,11.30
2018-03-08T14:54:53.701Z,11.40
2018-03-08T14:57:21.300Z,11.40
2018-03-08T14:59:48.856Z,11.40
2018-03-08T15:02:36.078Z,11.30
2018-03-08T15:05:03.645Z,11.20
2018-03-08T15:07:32.892Z,11.00
2018-03-08T15:10:00.472Z,10.90
2018-03-08T15:12:30.918Z,10.70
2018-03-08T15:15:02.995Z,10.70
2018-03-08T15:17:30.557Z,10.80
2018-03-08T15:19:58.114Z,10.70
2018-03-08T15:22:25.769Z,10.80
2018-03-08T15:24:53.325Z,10.90
2018-03-08T15:27:20.888Z,10.90
2018-03-08T15:29:48.451Z,10.90
2018-03-08T15:32:16.420Z,11.00
2018-03-08T15:34:44.679Z,10.90
2018-03-08T15:37:12.261Z,10.90
2018-03-08T15:39:40.581Z,10.90
2018-03-08T15:42:08.813Z,10.90
2018-03-08T15:44:36.447Z,11.00
2018-03-08T15:47:04.767Z,10.90
2018-03-08T15:49:32.354Z,10.90
2018-03-08T15:52:00.821Z,10.90
2018-03-08T15:54:28.389Z,10.90
2018-03-08T15:56:58.976Z,10.80
2018-03-08T15:59:28.085Z,10.80
2018-03-08T16:01:55.937Z,10.70
2018-03-08T16:04:23.497Z,10.70
2018-03-08T16:10:31.657Z,10.40
2018-03-08T16:12:59.261Z,10.60
2018-03-08T16:15:26.816Z,10.50
2018-03-08T16:17:54.378Z,10.40
2018-03-08T16:20:21.966Z,10.30
2018-03-08T16:22:49.533Z,10.30
2018-03-08T16:25:17.134Z,10.20
2018-03-08T16:27:49.262Z,10.20
2018-03-08T16:30:16.831Z,10.10
2018-03-08T16:32:44.399Z,10.10
2018-03-08T16:35:12.005Z,10.00
2018-03-08T16:37:39.573Z,10.00
2018-03-08T16:40:09.651Z,10.00
2018-03-08T16:42:37.232Z,9.90
2018-03-08T16:45:04.829Z,9.90
2018-03-08T16:47:32.477Z,9.80
2018-03-08T16:50:00.491Z,9.80
2018-03-08T16:52:29.228Z,9.70
2018-03-08T16:54:56.785Z,9.60
2018-03-08T16:57:24.394Z,9.60
2018-03-08T16:59:51.983Z,9.60
2018-03-08T17:02:19.543Z,9.60
2018-03-08T17:04:47.158Z,9.50
2018-03-08T17:07:16.296Z,9.40
2018-03-08T17:09:48.467Z,9.40
2018-03-08T17:12:16.509Z,9.40
2018-03-08T17:14:44.125Z,9.30
2018-03-08T17:17:11.693Z,9.20
2018-03-08T17:19:40.048Z,9.10
2018-03-08T17:22:07.608Z,9.00
2018-03-08T17:24:35.157Z,9.00
2018-03-08T17:27:02.729Z,8.80
2018-03-08T17:29:30.265Z,8.70
2018-03-08T17:31:57.948Z,8.60
2018-03-08T17:34:25.569Z,8.50
2018-03-08T17:36:53.116Z,8.40
2018-03-08T17:39:20.647Z,8.30
2018-03-08T17:41:48.220Z,8.20
2018-03-08T17:44:16.383Z,8.10
2018-03-08T17:46:43.925Z,8.10
2018-03-08T17:49:11.485Z,8.10
2018-03-08T17:51:39.010Z,8.10
2018-03-08T17:54:06.740Z,8.00
2018-03-08T17:56:34.541Z,8.00
2018-03-08T17:59:02.088Z,8.00
2018-03-08T18:01:29.643Z,8.00
2018-03-08T18:03:57.976Z,7.90
2018-03-08T18:06:25.521Z,7.90
2018-03-08T18:08:53.062Z,7.80
2018-03-08T18:11:20.659Z,7.70
2018-03-08T18:13:48.265Z,7.60
2018-03-08T18:16:16.437Z,7.50
2018-03-08T18:18:44.321Z,7.50
2018-03-08T18:21:11.860Z,7.50
2018-03-08T18:23:39.570Z,7.50
2018-03-08T18:26:07.132Z,7.50
2018-03-08T18:28:34.777Z,7.50
2018-03-08T18:31:02.396Z,7.40
2018-03-08T18:33:30.739Z,7.40
2018-03-08T18:35:58.379Z,7.30
2018-03-08T18:38:25.940Z,7.30
2018-03-08T18:40:54.076Z,7.20
2018-03-08T18:43:21.611Z,7.10
2018-03-08T18:45:49.169Z,7.00
2018-03-08T18:48:16.796Z,6.80
2018-03-08T18:50:44.375Z,6.80
2018-03-08T18:53:11.912Z,6.80
2018-03-08T18:55:41.144Z,6.80
2018-03-08T18:58:20.535Z,6.80
2018-03-08T19:00:49.460Z,6.70
2018-03-08T19:03:16.991Z,6.60
2018-03-08T19:05:44.514Z,6.60
2018-03-08T19:08:12.072Z,6.50
2018-03-08T19:10:39.777Z,6.40
2018-03-08T19:13:07.328Z,6.30
2018-03-08T19:15:35.132Z,6.20
2018-03-08T19:18:02.676Z,6.10
2018-03-08T19:20:30.220Z,6.00
2018-03-08T19:22:58.116Z,6.00
2018-03-08T19:25:25.831Z,5.90
2018-03-08T19:27:53.388Z,5.90
2018-03-08T19:30:21.760Z,5.70
2018-03-08T19:32:49.295Z,5.70
2018-03-08T19:35:16.980Z,5.70
2018-03-08T19:37:45.315Z,5.50
2018-03-08T19:40:15.012Z,5.50
2018-03-08T19:42:42.565Z,5.40
2018-03-08T19:45:10.140Z,5.30
2018-03-08T19:47:37.796Z,5.30
2018-03-08T19:50:05.332Z,5.20
2018-03-08T19:52:32.968Z,5.20
2018-03-08T19:55:00.526Z,5.10
2018-03-08T19:57:29.889Z,5.10
2018-03-08T19:59:57.480Z,5.00
2018-03-08T20:02:25.052Z,5.00
2018-03-08T20:04:53.356Z,4.90
2018-03-08T20:07:21.523Z,4.80
2018-03-08T20:09:49.239Z,4.90
2018-03-08T20:12:16.794Z,4.90
2018-03-08T20:14:46.841Z,4.80
2018-03-08T20:17:26.365Z,4.70
2018-03-08T20:22:11.496Z,4.70
2018-03-08T20:24:39.027Z,4.60
2018-03-08T20:27:07.333Z,4.70
2018-03-08T20:29:35.767Z,4.70
2018-03-08T20:32:03.308Z,4.70
2018-03-08T20:34:30.936Z,4.70
2018-03-08T20:36:58.492Z,4.70
2018-03-08T20:39:26.040Z,4.70
2018-03-08T20:41:53.590Z,4.60
2018-03-08T20:44:21.160Z,4.60
2018-03-08T20:46:49.459Z,4.60
2018-03-08T20:49:16.996Z,4.60
2018-03-08T20:51:45.952Z,4.40
2018-03-08T20:54:25.605Z,4.40
2018-03-08T21:03:08.856Z,4.40
2018-03-08T21:05:36.516Z,4.20
2018-03-08T21:08:04.147Z,4.30
2018-03-08T21:10:32.197Z,4.30
2018-03-08T21:13:00.496Z,4.30
2018-03-08T21:15:28.038Z,4.30
2018-03-08T21:17:55.612Z,4.30
2018-03-08T21:20:25.020Z,4.30
2018-03-08T21:22:52.564Z,4.30
2018-03-08T21:25:20.895Z,4.30
2018-03-08T21:27:48.435Z,4.30
2018-03-08T21:30:16.528Z,4.30
2018-03-08T21:32:44.168Z,4.30
2018-03-08T21:35:11.704Z,4.30
2018-03-08T21:37:39.243Z,4.40
2018-03-08T21:40:06.807Z,4.40
2018-03-08T21:42:35.121Z,4.40
2018-03-08T21:45:02.651Z,4.40
2018-03-08T21:47:31.004Z,4.50
2018-03-08T21:49:58.545Z,4.50
2018-03-08T21:52:26.077Z,4.50
2018-03-08T21:54:54.424Z,4.40
2018-03-08T21:57:22.725Z,4.40
2018-03-08T21:59:50.255Z,4.40
2018-03-08T22:02:18.576Z,4.50
2018-03-08T22:04:46.480Z,4.50
2018-03-08T22:07:16.350Z,4.50
2018-03-08T22:09:43.910Z,4.50
2018-03-08T22:12:11.597Z,4.50
2018-03-08T22:14:39.126Z,4.50
2018-03-08T22:17:07.060Z,4.60
2018-03-08T22:19:35.440Z,4.60
2018-03-08T22:22:03.754Z,4.60
2018-03-08T22:24:31.320Z,4.60
2018-03-08T22:26:58.848Z,4.60
2018-03-08T22:29:26.388Z,4.60
2018-03-08T22:31:53.955Z,4.50
2018-03-08T22:34:22.256Z,4.50
2018-03-08T22:36:49.788Z,4.50
2018-03-08T22:39:17.432Z,4.60
2018-03-08T22:41:44.961Z,4.60
2018-03-08T22:44:12.500Z,4.70
2018-03-08T22:46:40.062Z,4.70
2018-03-08T22:49:07.624Z,4.70
2018-03-08T22:51:35.163Z,4.70
2018-03-08T22:54:03.516Z,4.70
2018-03-08T22:56:31.068Z,4.70
2018-03-08T22:58:58.618Z,4.80
2018-03-08T23:04:27.439Z,5.00
2018-03-08T23:06:55.592Z,5.00
2018-03-08T23:09:23.135Z,5.00
2018-03-08T23:11:51.376Z,5.00
2018-03-08T23:14:19.708Z,5.10
2018-03-08T23:16:47.233Z,5.10
2018-03-08T23:19:16.411Z,5.10
2018-03-08T23:21:44.460Z,5.20
2018-03-08T23:24:12.031Z,5.20
2018-03-08T23:26:39.564Z,5.20
2018-03-08T23:29:07.128Z,5.20
2018-03-08T23:31:34.679Z,5.20
2018-03-08T23:34:02.212Z,5.20
2018-03-08T23:36:29.784Z,5.30
2018-03-08T23:38:57.318Z,5.30
2018-03-08T23:41:24.859Z,5.30
2018-03-08T23:43:53.815Z,5.30
2018-03-08T23:46:21.364Z,5.30
2018-03-08T23:48:48.894Z,5.40
2018-03-08T23:51:16.609Z,5.40
2018-03-08T23:53:44.140Z,5.40
2018-03-08T23:56:11.672Z,5.50
2018-03-08T23:58:39.239Z,5.50
